createdAt,value
2019-02-22T00:00:09.376Z,1.27
2019-02-22T00:02:40.029Z,1.29
2019-02-22T00:05:09.919Z,1.29
2019-02-22T00:07:39.772Z,1.27
2019-02-22T00:10:09.380Z,1.24
2019-02-22T00:12:39.264Z,1.16
2019-02-22T00:15:09.106Z,1.06
2019-02-22T00:17:38.715Z,0.95
2019-02-22T00:20:08.987Z,0.85
2019-02-22T00:22:39.031Z,0.81
2019-02-22T00:25:08.678Z,0.77
2019-02-22T00:27:38.331Z,0.72
2019-02-22T00:30:08.812Z,0.71
2019-02-22T00:32:38.416Z,0.77
2019-02-22T00:35:09.184Z,0.83
2019-02-22T00:37:38.982Z,0.82
2019-02-22T00:40:08.581Z,0.80
2019-02-22T00:42:39.292Z,0.78
2019-02-22T00:45:09.261Z,0.80
2019-02-22T00:47:39.363Z,0.80
2019-02-22T00:50:08.993Z,0.77
2019-02-22T00:52:39.239Z,0.73
2019-02-22T00:55:09.338Z,0.68
2019-02-22T00:57:39.192Z,0.65
2019-02-22T01:00:10.168Z,0.62
2019-02-22T01:02:39.780Z,0.61
2019-02-22T01:05:09.531Z,0.59
2019-02-22T01:07:39.772Z,0.60
2019-02-22T01:10:09.652Z,0.62
2019-02-22T01:12:39.263Z,0.62
2019-02-22T01:15:09.722Z,0.62
2019-02-22T01:17:39.334Z,0.61
2019-02-22T01:20:09.021Z,0.61
2019-02-22T01:22:38.873Z,0.61
2019-02-22T01:25:08.936Z,0.64
2019-02-22T01:27:38.535Z,0.67
2019-02-22T01:30:10.324Z,0.69
2019-02-22T01:32:40.558Z,0.72
2019-02-22T01:35:10.279Z,0.77
2019-02-22T01:37:40.149Z,0.79
2019-02-22T01:40:10.596Z,0.76
2019-02-22T01:42:41.106Z,0.76
2019-02-22T01:45:10.831Z,0.77
2019-02-22T01:47:42.004Z,0.80
2019-02-22T01:50:20.191Z,0.82
2019-02-22T01:52:50.163Z,0.82
2019-02-22T01:55:20.464Z,0.79
2019-02-22T01:57:50.198Z,0.77
2019-02-22T02:00:20.040Z,0.77
2019-02-22T02:02:50.416Z,0.80
2019-02-22T02:05:20.423Z,0.84
2019-02-22T02:07:50.893Z,0.78
2019-02-22T02:10:20.844Z,0.74
2019-02-22T02:12:50.648Z,0.70
2019-02-22T02:15:20.411Z,0.66
2019-02-22T02:17:50.031Z,0.59
2019-02-22T02:20:19.702Z,0.52
2019-02-22T02:22:49.329Z,0.46
2019-02-22T02:25:19.054Z,0.43
2019-02-22T02:27:49.234Z,0.38
2019-02-22T02:30:19.379Z,0.32
2019-02-22T02:32:49.140Z,0.31
2019-02-22T02:35:18.759Z,0.27
2019-02-22T02:37:48.724Z,0.26
2019-02-22T02:40:18.351Z,0.29
2019-02-22T02:42:47.971Z,0.29
2019-02-22T02:45:17.618Z,0.28
2019-02-22T02:47:48.460Z,0.28
2019-02-22T02:50:18.449Z,0.28
2019-02-22T02:52:48.707Z,0.27
2019-02-22T02:55:29.533Z,0.20
2019-02-22T02:58:01.640Z,0.12
2019-02-22T03:00:31.265Z,0.10
2019-02-22T03:03:00.889Z,0.09
2019-02-22T03:05:45.335Z,0.09
2019-02-22T03:08:14.948Z,0.06
2019-02-22T03:10:44.847Z,-0.01
2019-02-22T03:13:14.870Z,-0.09
2019-02-22T03:15:44.754Z,-0.19
2019-02-22T03:18:14.380Z,-0.26
2019-02-22T03:20:44.052Z,-0.33
2019-02-22T03:23:13.688Z,-0.40
2019-02-22T03:25:43.970Z,-0.48
2019-02-22T03:28:13.900Z,-0.54
2019-02-22T03:30:43.536Z,-0.59
2019-02-22T03:33:13.298Z,-0.63
2019-02-22T03:35:43.103Z,-0.67
2019-02-22T03:38:13.006Z,-0.73
2019-02-22T03:40:42.999Z,-0.74
2019-02-22T03:43:12.930Z,-0.76
2019-02-22T03:45:42.549Z,-0.80
2019-02-22T03:48:12.334Z,-0.86
2019-02-22T03:50:41.990Z,-0.91
2019-02-22T03:53:13.253Z,-0.97
2019-02-22T03:55:43.176Z,-1.02
2019-02-22T03:58:13.055Z,-1.05
2019-02-22T04:00:45.490Z,-1.10
2019-02-22T04:03:15.315Z,-1.09
2019-02-22T04:05:45.313Z,-1.10
2019-02-22T04:08:15.200Z,-1.08
2019-02-22T04:10:44.827Z,-1.09
2019-02-22T04:13:14.776Z,-1.09
2019-02-22T04:15:44.571Z,-1.09
2019-02-22T04:18:14.425Z,-1.09
2019-02-22T04:20:44.096Z,-1.08
2019-02-22T04:23:13.832Z,-1.12
2019-02-22T04:25:43.614Z,-1.13
2019-02-22T04:28:13.451Z,-1.15
2019-02-22T04:30:43.067Z,-1.14
2019-02-22T04:33:12.689Z,-1.14
2019-02-22T04:35:44.042Z,-1.13
2019-02-22T04:38:15.304Z,-1.16
2019-02-22T04:40:45.409Z,-1.19
2019-02-22T04:43:15.065Z,-1.21
2019-02-22T04:45:44.690Z,-1.21
2019-02-22T04:48:14.309Z,-1.18
2019-02-22T04:50:44.001Z,-1.16
2019-02-22T04:53:13.734Z,-1.16
2019-02-22T04:55:43.628Z,-1.19
2019-02-22T04:58:13.410Z,-1.22
2019-02-22T05:00:43.030Z,-1.23
2019-02-22T05:03:12.717Z,-1.24
2019-02-22T05:05:42.380Z,-1.26
2019-02-22T05:08:12.068Z,-1.26
2019-02-22T05:10:43.478Z,-1.28
2019-02-22T05:13:14.834Z,-1.32
2019-02-22T05:15:46.026Z,-1.35
2019-02-22T05:18:17.233Z,-1.34
2019-02-22T05:20:46.991Z,-1.33
2019-02-22T05:23:16.604Z,-1.33
2019-02-22T05:25:46.997Z,-1.34
2019-02-22T05:28:16.692Z,-1.36
2019-02-22T05:30:47.399Z,-1.34
2019-02-22T05:33:17.034Z,-1.31
2019-02-22T05:35:46.773Z,-1.28
2019-02-22T05:38:17.310Z,-1.24
2019-02-22T05:40:48.020Z,-1.23
2019-02-22T05:43:17.800Z,-1.22
2019-02-22T05:45:48.157Z,-1.22
2019-02-22T05:48:18.165Z,-1.24
2019-02-22T05:50:47.937Z,-1.24
2019-02-22T05:53:17.552Z,-1.27
2019-02-22T05:55:47.183Z,-1.29
2019-02-22T05:58:18.234Z,-1.28
2019-02-22T06:00:47.850Z,-1.26
2019-02-22T06:03:17.473Z,-1.24
2019-02-22T06:05:47.625Z,-1.22
2019-02-22T06:08:18.135Z,-1.24
2019-02-22T06:10:48.331Z,-1.26
2019-02-22T06:13:18.815Z,-1.26
2019-02-22T06:15:48.545Z,-1.23
2019-02-22T06:18:18.158Z,-1.20
2019-02-22T06:20:48.143Z,-1.17
2019-02-22T06:23:18.236Z,-1.14
2019-02-22T06:25:47.876Z,-1.11
2019-02-22T06:28:19.132Z,-1.13
2019-02-22T06:30:48.756Z,-1.16
2019-02-22T06:33:18.525Z,-1.19
2019-02-22T06:35:48.215Z,-1.20
2019-02-22T06:38:18.536Z,-1.23
2019-02-22T06:40:49.525Z,-1.20
2019-02-22T06:43:19.955Z,-1.17
2019-02-22T06:45:49.574Z,-1.17
2019-02-22T06:48:19.180Z,-1.16
2019-02-22T06:50:48.857Z,-1.15
2019-02-22T06:53:18.479Z,-1.13
2019-02-22T06:55:48.215Z,-1.11
2019-02-22T06:58:17.951Z,-1.07
2019-02-22T07:00:47.639Z,-1.00
2019-02-22T07:03:17.290Z,-0.94
2019-02-22T07:05:46.949Z,-0.80
2019-02-22T07:08:16.563Z,-0.74
2019-02-22T07:11:05.715Z,-0.74
2019-02-22T07:13:35.343Z,-0.74
2019-02-22T07:16:06.495Z,-0.74
2019-02-22T07:18:36.168Z,-0.75
2019-02-22T07:21:05.778Z,-0.74
2019-02-22T07:23:35.387Z,-0.74
2019-02-22T07:26:05.534Z,-0.74
2019-02-22T07:28:35.296Z,-0.73
2019-02-22T07:31:05.025Z,-0.72
2019-02-22T07:33:34.699Z,-0.71
2019-02-22T07:36:04.480Z,-0.70
2019-02-22T07:38:34.103Z,-0.68
2019-02-22T07:41:03.870Z,-0.66
2019-02-22T07:43:33.756Z,-0.64
2019-02-22T07:46:03.406Z,-0.63
2019-02-22T07:48:33.450Z,-0.61
2019-02-22T07:51:03.735Z,-0.60
2019-02-22T07:53:33.523Z,-0.55
2019-02-22T07:56:03.726Z,-0.53
2019-02-22T07:58:33.360Z,-0.50
2019-02-22T08:01:03.081Z,-0.48
2019-02-22T08:03:32.852Z,-0.47
2019-02-22T08:06:02.741Z,-0.46
2019-02-22T08:08:32.358Z,-0.45
2019-02-22T08:11:02.170Z,-0.43
2019-02-22T08:13:32.174Z,-0.42
2019-02-22T08:16:01.793Z,-0.41
2019-02-22T08:18:31.555Z,-0.39
2019-02-22T08:21:01.286Z,-0.34
2019-02-22T08:23:31.192Z,-0.32
2019-02-22T08:26:00.859Z,-0.31
2019-02-22T08:28:30.869Z,-0.31
2019-02-22T08:31:00.487Z,-0.31
2019-02-22T08:33:30.344Z,-0.32
2019-02-22T08:35:59.965Z,-0.30
2019-02-22T08:38:29.586Z,-0.28
2019-02-22T08:40:59.364Z,-0.25
2019-02-22T08:43:31.841Z,-0.16
2019-02-22T08:46:00.473Z,-0.08
2019-02-22T08:48:30.172Z,-0.03
2019-02-22T08:50:59.835Z,-0.04
2019-02-22T08:53:31.227Z,-0.06
2019-02-22T08:56:02.431Z,-0.07
2019-02-22T08:58:32.839Z,-0.10
2019-02-22T09:01:02.467Z,-0.11
2019-02-22T09:03:33.162Z,-0.11
2019-02-22T09:06:02.778Z,-0.06
2019-02-22T09:08:33.315Z,0.01
2019-02-22T09:11:03.246Z,0.03
2019-02-22T09:13:43.098Z,0.03
2019-02-22T09:16:04.240Z,0.04
2019-02-22T09:18:34.041Z,-0.01
2019-02-22T09:21:03.687Z,-0.04
2019-02-22T09:23:33.678Z,-0.06
2019-02-22T09:26:03.327Z,-0.09
2019-02-22T09:28:32.960Z,-0.12
2019-02-22T09:31:04.146Z,-0.14
2019-02-22T09:33:33.823Z,-0.10
2019-02-22T09:36:04.112Z,-0.08
2019-02-22T09:38:34.201Z,-0.04
2019-02-22T09:41:03.863Z,-0.06
2019-02-22T09:43:33.822Z,-0.04
2019-02-22T09:46:03.448Z,-0.05
2019-02-22T09:48:33.799Z,-0.03
2019-02-22T09:51:03.785Z,-0.03
2019-02-22T09:53:33.782Z,-0.03
2019-02-22T09:56:03.606Z,-0.03
2019-02-22T09:58:33.232Z,-0.05
2019-02-22T10:01:02.857Z,0.00
2019-02-22T10:03:33.385Z,0.05
2019-02-22T10:06:03.376Z,0.05
2019-02-22T10:08:34.460Z,0.08
2019-02-22T10:11:04.413Z,0.09
2019-02-22T10:13:34.033Z,0.09
2019-02-22T10:16:03.656Z,0.09
2019-02-22T10:18:33.885Z,0.09
2019-02-22T10:21:03.515Z,0.10
2019-02-22T10:23:33.891Z,0.11
2019-02-22T10:26:03.541Z,0.14
2019-02-22T10:28:33.629Z,0.15
2019-02-22T10:31:03.641Z,0.17
2019-02-22T10:33:36.914Z,0.20
2019-02-22T10:36:05.421Z,0.24
2019-02-22T10:38:36.172Z,0.27
2019-02-22T10:41:05.861Z,0.30
2019-02-22T10:43:36.553Z,0.34
2019-02-22T10:46:06.173Z,0.40
2019-02-22T10:48:36.834Z,0.42
2019-02-22T10:51:06.460Z,0.44
2019-02-22T10:53:37.044Z,0.45
2019-02-22T10:56:06.706Z,0.47
2019-02-22T10:58:36.519Z,0.52
2019-02-22T11:01:06.498Z,0.57
2019-02-22T11:03:36.357Z,0.59
2019-02-22T11:06:05.976Z,0.60
2019-02-22T11:08:37.312Z,0.60
2019-02-22T11:11:07.048Z,0.60
2019-02-22T11:13:36.661Z,0.62
2019-02-22T11:16:06.346Z,0.65
2019-02-22T11:18:39.388Z,0.67
2019-02-22T11:21:09.181Z,0.69
2019-02-22T11:23:39.179Z,0.71
2019-02-22T11:26:08.834Z,0.73
2019-02-22T11:28:38.614Z,0.75
2019-02-22T11:31:08.228Z,0.79
2019-02-22T11:33:37.917Z,0.84
2019-02-22T11:36:07.996Z,0.90
2019-02-22T11:38:37.731Z,0.96
2019-02-22T11:41:07.388Z,1.03
2019-02-22T11:43:36.998Z,1.07
2019-02-22T11:46:06.982Z,1.16
2019-02-22T11:48:36.810Z,1.25
2019-02-22T11:51:06.416Z,1.32
2019-02-22T11:53:36.717Z,1.39
2019-02-22T11:56:07.850Z,1.47
2019-02-22T11:58:37.508Z,1.57
2019-02-22T12:01:08.535Z,1.65
2019-02-22T12:03:38.758Z,1.73
2019-02-22T12:06:08.384Z,1.80
2019-02-22T12:08:37.992Z,1.86
2019-02-22T12:11:07.647Z,1.98
2019-02-22T12:13:38.154Z,2.12
2019-02-22T12:16:09.030Z,2.25
2019-02-22T12:18:38.848Z,2.44
2019-02-22T12:21:08.571Z,2.55
2019-02-22T12:23:38.198Z,2.64
2019-02-22T12:26:07.855Z,2.73
2019-02-22T12:28:38.360Z,2.85
2019-02-22T12:31:08.311Z,2.99
2019-02-22T12:33:38.008Z,3.16
2019-02-22T12:36:09.537Z,3.33
2019-02-22T12:38:39.007Z,3.51
2019-02-22T12:41:09.052Z,3.96
2019-02-22T12:43:38.653Z,6.43
2019-02-22T12:46:08.327Z,9.69
2019-02-22T12:48:38.139Z,12.05
2019-02-22T12:51:07.759Z,13.85
2019-02-22T12:53:38.315Z,15.25
2019-02-22T12:56:08.500Z,16.37
2019-02-22T12:58:38.132Z,17.36
2019-02-22T13:01:09.661Z,18.54
2019-02-22T13:03:39.621Z,19.66
2019-02-22T13:06:10.241Z,20.48
2019-02-22T13:08:39.967Z,21.00
2019-02-22T13:11:09.739Z,21.59
2019-02-22T13:13:39.482Z,22.26
2019-02-22T13:16:10.191Z,22.53
2019-02-22T13:18:41.892Z,23.08
2019-02-22T13:21:11.598Z,23.45
2019-02-22T13:23:41.347Z,23.82
2019-02-22T13:26:11.563Z,24.45
2019-02-22T13:28:41.186Z,25.04
2019-02-22T13:31:11.434Z,25.43
2019-02-22T13:33:41.697Z,25.78
2019-02-22T13:36:11.407Z,26.24
2019-02-22T13:38:41.013Z,26.65
2019-02-22T13:41:10.687Z,27.08
2019-02-22T13:43:40.415Z,27.47
2019-02-22T13:46:11.742Z,27.84
2019-02-22T13:48:41.959Z,28.21
2019-02-22T13:51:12.237Z,28.43
2019-02-22T13:53:41.859Z,28.80
2019-02-22T13:56:11.509Z,29.06
2019-02-22T13:58:41.137Z,29.05
2019-02-22T14:01:11.254Z,29.24
2019-02-22T14:03:41.000Z,29.31
2019-02-22T14:06:10.692Z,29.46
2019-02-22T14:08:42.533Z,29.46
2019-02-22T14:11:12.246Z,29.41
2019-02-22T14:13:42.798Z,29.34
2019-02-22T14:16:12.694Z,29.32
2019-02-22T14:18:42.869Z,29.35
2019-02-22T14:21:12.494Z,29.21
2019-02-22T14:23:42.130Z,29.27
2019-02-22T14:26:11.786Z,29.31
2019-02-22T14:28:41.606Z,28.09
2019-02-22T14:31:11.401Z,27.07
2019-02-22T14:33:41.078Z,27.64
2019-02-22T14:36:11.335Z,28.03
2019-02-22T14:38:41.018Z,28.23
2019-02-22T14:41:10.704Z,28.02
2019-02-22T14:43:40.683Z,27.68
2019-02-22T14:46:10.424Z,26.92
2019-02-22T14:48:40.375Z,25.34
2019-02-22T14:51:10.097Z,22.49
2019-02-22T14:53:40.908Z,20.53
2019-02-22T14:56:10.963Z,18.99
2019-02-22T14:58:43.284Z,17.75
2019-02-22T15:01:12.025Z,16.61
2019-02-22T15:03:41.700Z,15.29
2019-02-22T15:06:11.667Z,14.07
2019-02-22T15:08:41.295Z,13.03
2019-02-22T15:11:13.443Z,12.18
2019-02-22T15:13:44.129Z,11.40
2019-02-22T15:16:21.114Z,10.62
2019-02-22T15:18:50.898Z,9.64
2019-02-22T15:21:20.682Z,8.75
2019-02-22T15:23:51.590Z,7.96
2019-02-22T15:26:21.413Z,7.24
2019-02-22T15:28:51.945Z,6.59
2019-02-22T15:31:21.725Z,6.04
2019-02-22T15:33:51.357Z,5.52
2019-02-22T15:36:22.398Z,5.02
2019-02-22T15:38:52.918Z,4.58
2019-02-22T15:41:22.533Z,4.16
2019-02-22T15:43:52.178Z,3.78
2019-02-22T15:46:22.050Z,3.46
2019-02-22T15:48:51.667Z,3.15
2019-02-22T15:51:21.957Z,2.88
2019-02-22T15:53:51.607Z,2.62
2019-02-22T15:56:21.231Z,2.38
2019-02-22T15:58:50.849Z,2.17
2019-02-22T16:01:20.498Z,1.96
2019-02-22T16:03:52.657Z,1.78
2019-02-22T16:06:23.055Z,1.61
2019-02-22T16:08:52.933Z,1.46
2019-02-22T16:11:22.552Z,1.32
2019-02-22T16:13:52.448Z,1.18
2019-02-22T16:16:23.513Z,1.05
2019-02-22T16:18:53.341Z,0.91
2019-02-22T16:21:22.961Z,0.78
2019-02-22T16:23:52.721Z,0.68
2019-02-22T16:26:25.845Z,0.57
2019-02-22T16:28:55.459Z,0.47
2019-02-22T16:31:26.078Z,0.36
2019-02-22T16:33:56.027Z,0.25
2019-02-22T16:36:25.711Z,0.17
2019-02-22T16:38:55.450Z,0.11
2019-02-22T16:41:25.084Z,0.05
2019-02-22T16:43:54.719Z,0.00
2019-02-22T16:46:34.494Z,-0.12
2019-02-22T16:48:56.362Z,-0.24
2019-02-22T16:51:27.438Z,-0.38
2019-02-22T16:53:57.148Z,-0.51
2019-02-22T16:56:27.820Z,-0.59
2019-02-22T16:58:59.097Z,-0.66
2019-02-22T17:01:28.783Z,-0.77
2019-02-22T17:03:58.421Z,-0.87
2019-02-22T17:06:28.164Z,-0.96
2019-02-22T17:08:57.858Z,-1.04
2019-02-22T17:11:27.847Z,-1.11
2019-02-22T17:13:57.508Z,-1.19
2019-02-22T17:16:27.171Z,-1.29
2019-02-22T17:18:57.021Z,-1.38
2019-02-22T17:21:26.655Z,-1.47
2019-02-22T17:23:58.412Z,-1.55
2019-02-22T17:26:28.052Z,-1.61
2019-02-22T17:28:57.804Z,-1.69
2019-02-22T17:31:27.586Z,-1.74
2019-02-22T17:33:57.247Z,-1.81
2019-02-22T17:36:27.358Z,-1.85
2019-02-22T17:38:57.148Z,-1.91
2019-02-22T17:41:27.761Z,-1.97
2019-02-22T17:43:57.414Z,-2.06
2019-02-22T17:46:27.141Z,-2.09
2019-02-22T17:48:58.829Z,-2.14
2019-02-22T17:51:30.543Z,-2.17
2019-02-22T17:54:00.852Z,-2.23
2019-02-22T17:56:30.600Z,-2.29
2019-02-22T17:59:01.036Z,-2.32
2019-02-22T18:01:32.244Z,-2.33
2019-02-22T18:04:02.011Z,-2.37
2019-02-22T18:06:31.706Z,-2.43
2019-02-22T18:09:01.576Z,-2.47
2019-02-22T18:11:31.231Z,-2.50
2019-02-22T18:14:00.889Z,-2.51
2019-02-22T18:16:30.673Z,-2.39
2019-02-22T18:19:00.935Z,-2.46
2019-02-22T18:21:30.860Z,-2.60
2019-02-22T18:24:00.661Z,-2.70
2019-02-22T18:26:30.301Z,-2.80
2019-02-22T18:28:59.937Z,-2.88
2019-02-22T18:31:30.934Z,-2.96
2019-02-22T18:34:00.746Z,-2.98
2019-02-22T18:36:30.405Z,-3.02
2019-02-22T18:39:00.100Z,-3.06
2019-02-22T18:41:29.750Z,-3.08
2019-02-22T18:44:01.058Z,-3.12
2019-02-22T18:46:30.740Z,-3.18
2019-02-22T18:49:01.792Z,-3.19
2019-02-22T18:51:31.844Z,-3.21
2019-02-22T18:54:01.533Z,-3.07
2019-02-22T18:56:31.176Z,-3.07
2019-02-22T18:59:01.474Z,-3.11
2019-02-22T19:01:31.220Z,-3.18
2019-02-22T19:04:03.401Z,-3.23
2019-02-22T19:06:33.211Z,-3.29
2019-02-22T19:09:02.932Z,-3.32
2019-02-22T19:11:32.645Z,-3.38
2019-02-22T19:14:02.304Z,-3.42
2019-02-22T19:16:32.098Z,-3.45
2019-02-22T19:19:02.240Z,-3.47
2019-02-22T19:21:32.227Z,-3.48
2019-02-22T19:24:01.906Z,-3.52
2019-02-22T19:26:32.623Z,-3.58
2019-02-22T19:29:02.256Z,-3.63
2019-02-22T19:31:32.243Z,-3.66
2019-02-22T19:34:01.886Z,-3.67
2019-02-22T19:36:31.639Z,-3.71
2019-02-22T19:39:01.492Z,-3.77
2019-02-22T19:41:31.127Z,-3.85
2019-02-22T19:44:01.074Z,-3.92
2019-02-22T19:46:31.263Z,-3.97
2019-02-22T19:49:01.212Z,-3.97
2019-02-22T19:51:30.845Z,-3.96
2019-02-22T19:54:00.558Z,-3.96
2019-02-22T19:56:30.372Z,-3.95
2019-02-22T19:59:03.111Z,-3.97
2019-02-22T20:01:32.937Z,-4.00
2019-02-22T20:04:05.757Z,-4.02
2019-02-22T20:06:41.703Z,-4.07
2019-02-22T20:09:13.366Z,-4.05
2019-02-22T20:11:44.040Z,-4.05
2019-02-22T20:14:14.346Z,-4.07
2019-02-22T20:16:44.312Z,-4.12
2019-02-22T20:19:14.064Z,-4.15
2019-02-22T20:21:44.970Z,-4.19
2019-02-22T20:24:15.889Z,-4.22
2019-02-22T20:26:45.715Z,-4.23
2019-02-22T20:29:15.347Z,-4.24
2019-02-22T20:31:45.739Z,-4.27
2019-02-22T20:34:17.020Z,-4.29
2019-02-22T20:36:46.700Z,-4.33
2019-02-22T20:39:16.378Z,-4.33
2019-02-22T20:41:48.344Z,-4.35
2019-02-22T20:44:18.466Z,-4.36
2019-02-22T20:46:49.139Z,-4.38
2019-02-22T20:49:18.901Z,-4.40
2019-02-22T20:51:48.594Z,-4.42
2019-02-22T20:54:21.362Z,-4.43
2019-02-22T20:56:50.965Z,-4.45
2019-02-22T20:59:20.975Z,-4.47
2019-02-22T21:01:51.167Z,-4.49
2019-02-22T21:04:21.540Z,-4.32
2019-02-22T21:06:51.168Z,-4.31
2019-02-22T21:09:21.714Z,-4.36
2019-02-22T21:11:51.425Z,-4.39
2019-02-22T21:14:21.313Z,-4.46
2019-02-22T21:16:51.120Z,-4.45
2019-02-22T21:19:20.749Z,-4.48
2019-02-22T21:21:50.392Z,-4.50
2019-02-22T21:24:21.179Z,-4.53
2019-02-22T21:26:52.253Z,-4.56
2019-02-22T21:29:21.887Z,-4.59
2019-02-22T21:31:51.595Z,-4.61
2019-02-22T21:34:21.337Z,-4.64
2019-02-22T21:36:51.974Z,-4.65
2019-02-22T21:39:22.948Z,-4.65
2019-02-22T21:41:52.700Z,-4.65
2019-02-22T21:44:23.517Z,-4.70
2019-02-22T21:46:53.476Z,-4.73
2019-02-22T21:49:23.254Z,-4.75
2019-02-22T21:51:53.006Z,-4.78
2019-02-22T21:54:23.230Z,-4.79
2019-02-22T21:56:52.860Z,-4.79
2019-02-22T21:59:22.500Z,-4.76
2019-02-22T22:01:52.176Z,-4.73
2019-02-22T22:04:22.005Z,-4.72
2019-02-22T22:06:51.758Z,-4.69
2019-02-22T22:09:21.545Z,-4.67
2019-02-22T22:11:51.223Z,-4.63
2019-02-22T22:14:21.197Z,-4.45
2019-02-22T22:16:50.934Z,-4.38
2019-02-22T22:19:20.571Z,-4.34
2019-02-22T22:21:50.203Z,-4.29
2019-02-22T22:24:20.042Z,-4.30
2019-02-22T22:26:54.890Z,-4.31
2019-02-22T22:29:24.722Z,-4.34
2019-02-22T22:31:54.487Z,-4.30
2019-02-22T22:34:24.121Z,-4.25
2019-02-22T22:36:53.780Z,-4.20
2019-02-22T22:39:23.452Z,-4.13
2019-02-22T22:41:53.086Z,-4.05
2019-02-22T22:44:23.080Z,-3.97
2019-02-22T22:46:52.767Z,-3.88
2019-02-22T22:49:22.396Z,-3.79
2019-02-22T22:51:52.160Z,-3.79
2019-02-22T22:54:22.084Z,-3.80
2019-02-22T22:56:51.888Z,-3.77
2019-02-22T22:59:21.525Z,-3.74
2019-02-22T23:01:51.906Z,-3.74
2019-02-22T23:04:22.214Z,-3.75
2019-02-22T23:06:52.011Z,-3.76
2019-02-22T23:09:23.186Z,-3.75
2019-02-22T23:11:53.615Z,-3.75
2019-02-22T23:14:23.325Z,-3.73
2019-02-22T23:16:53.105Z,-3.67
2019-02-22T23:19:23.093Z,-3.60
2019-02-22T23:21:52.739Z,-3.55
2019-02-22T23:24:23.506Z,-3.46
2019-02-22T23:26:53.137Z,-3.37
2019-02-22T23:29:22.797Z,-3.30
2019-02-22T23:31:52.546Z,-3.24
2019-02-22T23:34:22.348Z,-3.18
2019-02-22T23:36:52.147Z,-3.12
2019-02-22T23:39:22.078Z,-3.14
2019-02-22T23:41:51.710Z,-3.13
2019-02-22T23:44:21.352Z,-3.13
2019-02-22T23:46:51.054Z,-3.12
2019-02-22T23:49:21.379Z,-3.09
2019-02-22T23:51:51.306Z,-3.08
2019-02-22T23:54:20.975Z,-3.04
2019-02-22T23:56:51.451Z,-2.98
2019-02-22T23:59:22.163Z,-2.93
